createdAt,value
2023-01-11T02:19:48.577Z,101247.97
2023-01-11T02:22:52.770Z,101257.95
2023-01-11T02:25:45.258Z,101261.37
2023-01-11T02:28:21.195Z,101265.23
2023-01-11T02:31:00.809Z,101263.08
2023-01-11T02:33:39.827Z,101260.27
2023-01-11T02:36:30.999Z,101259.71
2023-01-11T02:39:30.974Z,101256.94
2023-01-11T02:42:25.539Z,101255.34
2023-01-11T02:45:01.475Z,101248.11
2023-01-11T02:47:48.486Z,101243.45
2023-01-11T02:50:27.435Z,101246.30
2023-01-11T02:52:55.876Z,101248.98
2023-01-11T02:55:27.522Z,101249.79
2023-01-11T02:57:55.529Z,101248.54
2023-01-11T03:00:22.436Z,101250.35
2023-01-11T03:03:09.603Z,101259.85
2023-01-11T03:05:38.572Z,101259.98
2023-01-11T03:08:41.463Z,101255.95
2023-01-11T03:11:11.760Z,101264.59
2023-01-11T03:13:57.817Z,101272.56
2023-01-11T03:16:25.193Z,101274.91
2023-01-11T03:19:10.431Z,101278.65
2023-01-11T03:22:06.495Z,101281.06
2023-01-11T03:24:50.437Z,101282.70
2023-01-11T03:27:37.682Z,101289.42
2023-01-11T03:30:16.571Z,101295.32
2023-01-11T03:32:54.969Z,101293.48
2023-01-11T03:35:26.839Z,101298.75
2023-01-11T03:38:07.231Z,101303.23
2023-01-11T03:40:36.379Z,101304.62
2023-01-11T03:43:10.946Z,101298.77
2023-01-11T03:45:56.746Z,101295.49
2023-01-11T03:48:41.861Z,101293.64
2023-01-11T03:51:12.738Z,101297.48
2023-01-11T03:53:39.994Z,101297.09
2023-01-11T03:56:09.457Z,101296.86
2023-01-11T03:58:36.109Z,101303.15
2023-01-11T04:01:02.947Z,101308.40
2023-01-11T04:03:29.812Z,101302.43
2023-01-11T04:05:59.805Z,101303.71
2023-01-11T04:08:26.607Z,101302.94
2023-01-11T04:10:53.318Z,101300.28
2023-01-11T04:13:20.139Z,101302.99
2023-01-11T04:15:46.773Z,101302.12
2023-01-11T04:18:13.433Z,101307.21
2023-01-11T04:20:40.563Z,101310.48
2023-01-11T04:23:08.040Z,101316.41
2023-01-11T04:25:34.793Z,101319.58
2023-01-11T04:28:01.533Z,101325.09
2023-01-11T04:30:28.160Z,101330.96
2023-01-11T04:32:57.787Z,101334.59
2023-01-11T04:35:24.532Z,101331.70
2023-01-11T04:37:55.418Z,101337.02
2023-01-11T04:40:22.359Z,101341.45
2023-01-11T04:42:49.157Z,101341.44
2023-01-11T04:45:15.868Z,101338.66
2023-01-11T04:47:42.550Z,101339.50
2023-01-11T04:50:09.933Z,101345.01
2023-01-11T04:52:36.709Z,101352.10
2023-01-11T04:55:03.605Z,101352.79
2023-01-11T04:57:30.354Z,101355.24
2023-01-11T04:59:57.048Z,101347.30
2023-01-11T05:02:23.757Z,101351.05
2023-01-11T05:04:50.475Z,101343.48
2023-01-11T05:07:17.183Z,101341.29
2023-01-11T05:09:43.868Z,101343.10
2023-01-11T05:12:10.626Z,101345.73
2023-01-11T05:14:37.258Z,101351.02
2023-01-11T05:17:03.930Z,101353.56
2023-01-11T05:19:30.571Z,101357.01
2023-01-11T05:21:57.213Z,101362.14
2023-01-11T05:24:23.945Z,101359.17
2023-01-11T05:26:52.476Z,101363.01
2023-01-11T05:29:21.135Z,101366.95
2023-01-11T05:31:48.311Z,101371.71
2023-01-11T05:34:15.559Z,101368.76
2023-01-11T05:36:42.779Z,101378.57
2023-01-11T05:39:11.222Z,101380.02
2023-01-11T05:41:37.944Z,101373.98
2023-01-11T05:44:23.516Z,101379.66
2023-01-11T05:46:50.189Z,101382.91
2023-01-11T05:49:16.954Z,101382.04
2023-01-11T05:51:43.883Z,101388.90
2023-01-11T05:54:12.666Z,101390.05
2023-01-11T05:56:39.451Z,101394.08
2023-01-11T05:59:06.162Z,101387.09
2023-01-11T06:01:33.068Z,101389.34
2023-01-11T12:38:29.938Z,101287.33
2023-01-11T12:41:41.930Z,101288.20
2023-01-11T12:44:49.227Z,101285.33
2023-01-11T12:47:42.384Z,101285.73
2023-01-11T12:50:55.651Z,101288.85
2023-01-11T12:53:31.904Z,101287.58
2023-01-11T12:56:15.493Z,101285.44
2023-01-11T12:58:50.000Z,101280.90
2023-01-11T13:01:25.984Z,101278.41
2023-01-11T13:04:05.050Z,101283.85
2023-01-11T13:06:39.472Z,101277.91
2023-01-11T13:09:11.711Z,101279.04
2023-01-11T13:11:53.697Z,101289.49
2023-01-11T13:14:25.765Z,101294.66
2023-01-11T13:17:10.764Z,101293.45
2023-01-11T13:19:42.826Z,101302.83
2023-01-11T13:22:15.391Z,101307.92
2023-01-11T13:24:42.087Z,101315.09
2023-01-11T13:27:14.034Z,101318.81
2023-01-11T13:29:42.895Z,101312.79
2023-01-11T13:32:31.501Z,101309.70
2023-01-11T13:35:05.761Z,101307.93
2023-01-11T13:37:35.419Z,101315.39
2023-01-11T13:40:10.870Z,101320.85
2023-01-11T13:42:40.851Z,101322.86
2023-01-11T13:45:15.441Z,101325.22
2023-01-11T13:47:49.454Z,101323.44
2023-01-11T13:50:21.113Z,101320.65
2023-01-11T13:53:09.853Z,101317.40
2023-01-11T13:55:39.658Z,101321.91
2023-01-11T13:58:13.968Z,101326.46
2023-01-11T14:01:09.154Z,101319.77
2023-01-11T14:03:46.970Z,101317.90
2023-01-11T14:06:51.450Z,101320.84
2023-01-11T18:36:37.499Z,101285.20
2023-01-11T18:39:10.068Z,101287.09
2023-01-11T18:41:55.460Z,101286.42
2023-01-11T18:44:22.182Z,101277.89
2023-01-11T18:46:48.843Z,101276.89
2023-01-11T18:49:15.673Z,101282.36
2023-01-11T18:51:45.181Z,101278.59
2023-01-11T18:54:15.577Z,101278.23
2023-01-11T18:56:42.228Z,101275.45
2023-01-11T18:59:09.046Z,101274.95
2023-01-11T19:01:52.637Z,101271.67
2023-01-11T19:04:22.680Z,101269.41
2023-01-11T19:06:52.277Z,101257.89
2023-01-11T19:09:19.114Z,101251.77
2023-01-11T19:11:45.802Z,101253.28
2023-01-11T19:14:12.565Z,101248.60
2023-01-11T19:16:39.295Z,101245.33
2023-01-11T19:19:06.046Z,101237.20
2023-01-11T19:21:32.723Z,101232.73
2023-01-11T19:23:59.527Z,101227.20
2023-01-11T19:26:27.753Z,101217.02
2023-01-11T19:28:54.539Z,101210.32
2023-01-11T19:31:21.261Z,101207.05
2023-01-11T19:33:48.024Z,101213.50
2023-01-11T19:36:14.780Z,101216.63
2023-01-11T19:38:41.736Z,101225.04
2023-01-11T19:41:09.052Z,101230.52
2023-01-11T19:43:36.040Z,101225.39
2023-01-11T19:46:04.178Z,101235.27
2023-01-11T19:48:32.825Z,101222.08
2023-01-11T19:51:03.917Z,101223.29
2023-01-11T19:53:30.988Z,101222.77
2023-01-11T19:56:01.780Z,101220.32
2023-01-11T19:58:28.704Z,101214.77
2023-01-11T20:00:55.567Z,101207.70
2023-01-11T20:03:22.500Z,101199.13
2023-01-11T20:05:49.725Z,101194.10
2023-01-11T20:08:17.202Z,101186.34
2023-01-11T20:10:44.235Z,101179.92
2023-01-11T20:13:11.065Z,101176.57
2023-01-11T20:15:38.712Z,101184.36
2023-01-11T20:18:05.727Z,101185.48
2023-01-11T20:20:32.524Z,101185.05
2023-01-11T20:22:59.248Z,101186.92
2023-01-11T20:25:25.982Z,101190.42
2023-01-11T20:27:53.040Z,101188.39
2023-01-11T20:30:19.830Z,101189.73
2023-01-11T20:32:46.488Z,101183.55
2023-01-11T20:35:13.224Z,101188.21
2023-01-11T20:37:39.921Z,101189.04
2023-01-11T20:40:07.360Z,101196.05
2023-01-11T20:42:34.392Z,101185.33
2023-01-11T20:45:01.259Z,101188.58
2023-01-11T20:47:28.130Z,101180.66
2023-01-11T20:49:55.032Z,101182.10
2023-01-11T20:52:21.718Z,101180.13
2023-01-11T20:54:48.486Z,101182.59
2023-01-11T20:57:15.317Z,101181.63
2023-01-11T20:59:42.143Z,101184.44
2023-01-11T21:02:10.339Z,101182.47
2023-01-11T21:04:37.124Z,101182.00
2023-01-11T21:07:04.127Z,101185.11
2023-01-11T21:09:30.886Z,101187.48
2023-01-11T21:11:57.684Z,101194.77
2023-01-11T21:14:24.409Z,101194.17
2023-01-11T21:16:54.772Z,101192.85
2023-01-11T21:19:21.705Z,101188.52
2023-01-11T21:21:49.777Z,101191.17
2023-01-11T21:24:16.801Z,101185.56
2023-01-11T21:26:45.573Z,101187.02
2023-01-11T21:29:13.203Z,101193.70
2023-01-11T21:31:40.900Z,101192.15
2023-01-11T21:34:07.965Z,101197.27
2023-01-11T21:36:34.757Z,101198.11
2023-01-11T21:39:02.760Z,101196.00
2023-01-11T21:41:49.617Z,101191.73
2023-01-11T21:44:16.695Z,101197.39
2023-01-11T21:46:43.692Z,101200.64
2023-01-11T21:49:10.900Z,101205.36
2023-01-11T21:51:37.923Z,101199.84
2023-01-11T21:54:06.128Z,101196.64
2023-01-11T21:56:32.937Z,101195.45
2023-01-11T21:58:59.735Z,101200.29
2023-01-11T22:01:26.482Z,101206.07
2023-01-11T22:03:53.550Z,101206.63
2023-01-11T22:06:20.237Z,101213.91
2023-01-11T22:08:46.966Z,101214.08
2023-01-11T22:11:15.097Z,101214.02
2023-01-11T22:13:42.094Z,101213.36
2023-01-11T22:16:11.203Z,101208.80
2023-01-11T22:18:38.144Z,101206.39
2023-01-11T22:21:06.348Z,101206.63
